Ramea, Canada
Current Conditions -  °F | °C
As of 6:00 AM on Saturday 22 Nov 2014 (Local Time) from LFVP Reporting Station
Broken Clouds Broken Clouds  
Wind Chill: 13°   Ceiling: 4300
Heat Index: 28°   Visibility: 6mi
Dew Point: 23°   Wind: 28mph
Humidity: 80%   Direction: 310°NW
Pressure: 29.68"   Gusts: 39mph
Location:  47.52°N, 57.42°W
Report Text: LFVP 220900Z 31024G34KT 9999 BKN043 M02/M05 Q1005 NOSIG
Loading
Personal Weather Stations






























Interactive Weather Map New forecast layout! Learn more

10-Day Weather Forecast

Advertisements
Track Severe Weather on mobile